createdAt,value
2023-05-05T00:00:15.991Z,1.60
2023-05-05T00:01:15.897Z,1.30
2023-05-05T00:02:15.901Z,1.40
2023-05-05T00:03:15.981Z,1.10
2023-05-05T00:04:15.988Z,1.70
2023-05-05T00:05:15.835Z,1.20
2023-05-05T00:06:15.844Z,1.20
2023-05-05T00:07:15.847Z,1.00
2023-05-05T00:08:15.816Z,1.30
2023-05-05T00:09:15.806Z,0.80
2023-05-05T00:10:15.785Z,1.50
2023-05-05T00:11:15.777Z,1.00
2023-05-05T00:12:15.791Z,1.90
2023-05-05T00:13:15.753Z,0.90
2023-05-05T00:14:15.765Z,1.10
2023-05-05T00:15:15.764Z,1.10
2023-05-05T00:16:15.720Z,1.60
2023-05-05T00:17:15.793Z,1.20
2023-05-05T00:18:15.708Z,1.80
2023-05-05T00:19:15.707Z,1.80
2023-05-05T00:20:15.718Z,0.80
2023-05-05T00:21:15.775Z,1.80
2023-05-05T00:22:15.683Z,1.20
2023-05-05T00:23:15.662Z,1.40
2023-05-05T00:24:15.625Z,1.20
2023-05-05T00:25:15.635Z,1.10
2023-05-05T00:26:15.640Z,1.20
2023-05-05T00:27:15.612Z,1.20
2023-05-05T00:28:15.617Z,1.10
2023-05-05T00:29:15.585Z,1.10
2023-05-05T00:30:15.562Z,1.10
2023-05-05T00:31:15.582Z,1.30
2023-05-05T00:32:15.556Z,1.20
2023-05-05T00:33:15.573Z,1.50
2023-05-05T00:34:15.526Z,1.10
2023-05-05T00:35:15.544Z,1.10
2023-05-05T00:36:15.538Z,0.70
2023-05-05T00:37:15.512Z,1.60
2023-05-05T00:38:15.511Z,1.50
2023-05-05T00:39:15.487Z,1.70
2023-05-05T00:40:15.470Z,1.50
2023-05-05T00:41:15.461Z,1.00
2023-05-05T00:42:15.437Z,1.20
2023-05-05T00:43:15.431Z,1.10
2023-05-05T00:44:15.425Z,1.20
2023-05-05T00:45:15.433Z,1.00
2023-05-05T00:46:15.432Z,1.20
2023-05-05T00:47:15.439Z,1.40
2023-05-05T00:48:15.399Z,1.20
2023-05-05T00:49:15.415Z,1.70
2023-05-05T00:50:15.587Z,1.60
2023-05-05T00:51:15.369Z,1.10
2023-05-05T00:52:15.344Z,1.90
2023-05-05T00:53:15.341Z,1.60
2023-05-05T00:54:15.326Z,1.30
2023-05-05T00:55:15.344Z,1.30
2023-05-05T00:56:15.295Z,1.80
2023-05-05T00:57:15.317Z,1.30
2023-05-05T00:58:15.291Z,1.30
2023-05-05T00:59:15.260Z,1.60
2023-05-05T01:00:15.278Z,1.10
2023-05-05T01:01:15.301Z,1.20
2023-05-05T01:02:15.244Z,1.10
2023-05-05T01:03:15.429Z,0.90
2023-05-05T01:04:15.239Z,1.20
2023-05-05T01:05:15.205Z,1.90
2023-05-05T01:06:15.239Z,1.40
2023-05-05T01:07:15.187Z,1.30
2023-05-05T01:08:15.175Z,1.10
2023-05-05T01:09:15.196Z,1.40
2023-05-05T01:10:20.322Z,1.40
2023-05-05T01:11:15.137Z,1.40
2023-05-05T01:12:15.172Z,1.10
2023-05-05T01:13:15.227Z,1.50
2023-05-05T01:14:15.160Z,0.90
2023-05-05T01:15:15.115Z,1.60
2023-05-05T01:16:15.180Z,1.30
2023-05-05T01:17:15.109Z,0.90
2023-05-05T01:18:15.096Z,1.40
2023-05-05T01:19:15.058Z,1.40
2023-05-05T01:20:15.086Z,1.10
2023-05-05T01:21:15.040Z,1.40
2023-05-05T01:22:15.084Z,1.20
2023-05-05T01:23:15.038Z,1.70
2023-05-05T01:24:15.044Z,1.20
2023-05-05T01:25:15.030Z,1.60
2023-05-05T01:26:14.999Z,1.30
2023-05-05T01:27:15.017Z,1.60
2023-05-05T01:28:15.001Z,0.90
2023-05-05T01:29:14.941Z,1.40
2023-05-05T01:30:14.950Z,1.50
2023-05-05T01:31:14.935Z,1.30
2023-05-05T01:32:14.963Z,1.20
2023-05-05T01:33:15.108Z,2.00
2023-05-05T01:34:14.899Z,1.70
2023-05-05T01:35:14.896Z,1.20
2023-05-05T01:36:14.891Z,1.40
2023-05-05T01:37:14.878Z,1.60
2023-05-05T01:38:15.170Z,1.30
2023-05-05T01:39:14.860Z,1.70
2023-05-05T01:40:14.902Z,1.50
2023-05-05T01:41:14.827Z,1.70
2023-05-05T01:42:14.817Z,1.30
2023-05-05T01:43:14.794Z,1.70
2023-05-05T01:44:14.821Z,1.40
2023-05-05T01:45:14.837Z,1.70
2023-05-05T01:46:14.924Z,2.00
2023-05-05T01:47:14.777Z,1.20
2023-05-05T01:48:14.770Z,1.90
2023-05-05T01:49:14.753Z,1.80
2023-05-05T01:50:14.747Z,1.30
2023-05-05T01:51:14.731Z,1.30
2023-05-05T01:52:14.718Z,2.10
2023-05-05T01:53:14.737Z,1.20
2023-05-05T01:54:14.700Z,1.60
2023-05-05T01:55:14.674Z,1.90
2023-05-05T01:56:14.714Z,1.30
2023-05-05T01:57:14.685Z,2.10
2023-05-05T01:58:14.662Z,1.90
2023-05-05T01:59:14.625Z,1.20
2023-05-05T02:00:14.660Z,1.40
2023-05-05T02:01:14.653Z,1.60
2023-05-05T02:02:14.653Z,1.00
2023-05-05T02:03:14.780Z,1.50
2023-05-05T02:04:14.645Z,1.40
2023-05-05T02:05:14.568Z,1.50
2023-05-05T02:06:14.576Z,1.30
2023-05-05T02:07:14.559Z,1.60
2023-05-05T02:08:14.595Z,1.20
2023-05-05T02:09:14.544Z,1.20
2023-05-05T02:10:14.521Z,1.10
2023-05-05T02:11:14.496Z,1.50
2023-05-05T02:12:14.514Z,1.20
2023-05-05T02:13:14.555Z,2.00
2023-05-05T02:14:14.521Z,1.70
2023-05-05T02:15:14.484Z,2.10
2023-05-05T02:16:14.576Z,1.40
2023-05-05T02:17:14.462Z,1.60
2023-05-05T02:18:14.457Z,1.40
2023-05-05T02:19:14.432Z,1.80
2023-05-05T02:20:14.445Z,1.90
2023-05-05T02:21:14.423Z,2.20
2023-05-05T02:22:14.410Z,1.50
2023-05-05T02:23:14.395Z,1.40
2023-05-05T02:24:14.404Z,1.60
2023-05-05T02:25:14.401Z,1.40
2023-05-05T02:26:14.366Z,1.30
2023-05-05T02:27:14.345Z,1.80
2023-05-05T02:28:14.372Z,1.70
2023-05-05T02:29:14.351Z,1.10
2023-05-05T02:30:14.333Z,1.30
2023-05-05T02:31:14.361Z,1.20
2023-05-05T02:32:14.312Z,1.70
2023-05-05T02:33:14.303Z,1.30
2023-05-05T02:34:14.309Z,1.30
2023-05-05T02:35:14.301Z,1.30
2023-05-05T02:36:14.274Z,1.20
2023-05-05T02:37:14.256Z,1.60
2023-05-05T02:38:14.247Z,1.30
2023-05-05T02:39:14.250Z,1.30
2023-05-05T02:40:14.239Z,1.40
2023-05-05T02:41:14.228Z,1.30
2023-05-05T02:42:14.206Z,1.30
2023-05-05T02:43:14.220Z,1.90
2023-05-05T02:44:14.340Z,1.40
2023-05-05T02:45:14.159Z,1.40
2023-05-05T02:46:14.205Z,1.40
2023-05-05T02:47:14.158Z,1.60
2023-05-05T02:48:14.134Z,1.10
2023-05-05T02:49:14.126Z,1.60
2023-05-05T02:50:14.123Z,1.80
2023-05-05T02:51:14.099Z,1.70
2023-05-05T02:52:14.115Z,1.50
2023-05-05T02:53:14.077Z,1.50
2023-05-05T02:54:14.539Z,1.30
2023-05-05T02:55:14.072Z,1.70
2023-05-05T02:56:14.121Z,1.80
2023-05-05T02:57:14.045Z,1.80
2023-05-05T02:58:14.041Z,1.60
2023-05-05T02:59:15.982Z,1.50
2023-05-05T03:00:14.054Z,1.80
2023-05-05T03:01:14.053Z,1.40
2023-05-05T03:02:14.031Z,1.60
2023-05-05T03:03:14.292Z,1.90
2023-05-05T03:04:13.974Z,1.40
2023-05-05T03:05:13.950Z,1.50
2023-05-05T03:06:13.955Z,1.10
2023-05-05T03:07:13.951Z,1.70
2023-05-05T03:08:13.968Z,1.40
2023-05-05T03:09:13.929Z,1.80
2023-05-05T03:10:13.941Z,1.60
2023-05-05T03:11:13.886Z,1.50
2023-05-05T03:12:13.887Z,1.80
2023-05-05T03:13:14.013Z,1.70
2023-05-05T03:14:13.878Z,1.20
2023-05-05T03:15:13.865Z,1.50
2023-05-05T03:16:13.908Z,1.90
2023-05-05T03:17:13.843Z,1.20
2023-05-05T03:18:13.826Z,1.70
2023-05-05T03:19:13.847Z,1.80
2023-05-05T03:20:13.811Z,1.40
2023-05-05T03:21:13.786Z,1.70
2023-05-05T03:22:13.783Z,1.00
2023-05-05T03:23:13.767Z,1.80
2023-05-05T03:24:13.772Z,1.40
2023-05-05T03:25:13.782Z,1.50
2023-05-05T03:26:13.737Z,1.90
2023-05-05T03:27:13.680Z,2.20
2023-05-05T03:28:13.686Z,1.40
2023-05-05T03:29:13.681Z,1.30
2023-05-05T03:30:13.730Z,1.60
2023-05-05T03:31:13.691Z,1.10
2023-05-05T03:32:13.753Z,1.80
2023-05-05T03:33:13.625Z,1.10
2023-05-05T03:34:13.626Z,2.10
2023-05-05T03:35:13.586Z,1.30
2023-05-05T03:36:13.611Z,1.70
2023-05-05T03:37:13.570Z,1.50
2023-05-05T03:38:13.581Z,1.60
2023-05-05T03:39:13.541Z,1.40
2023-05-05T03:40:13.563Z,1.20
2023-05-05T03:41:13.551Z,1.50
2023-05-05T03:42:13.521Z,1.60
2023-05-05T03:43:13.526Z,1.80
2023-05-05T03:44:13.516Z,1.90
2023-05-05T03:45:13.477Z,1.00
2023-05-05T03:46:13.637Z,1.60
2023-05-05T03:47:13.450Z,1.40
2023-05-05T03:48:13.466Z,1.90
2023-05-05T03:49:13.462Z,1.70
2023-05-05T03:50:13.432Z,2.10
2023-05-05T03:51:13.471Z,2.30
2023-05-05T03:52:15.022Z,1.70
2023-05-05T03:53:13.420Z,1.20
2023-05-05T03:54:13.420Z,1.50
2023-05-05T03:55:13.373Z,1.40
2023-05-05T03:56:13.403Z,1.80
2023-05-05T03:57:13.400Z,1.70
2023-05-05T03:58:13.361Z,1.90
2023-05-05T03:59:13.354Z,2.00
2023-05-05T04:00:13.353Z,1.40
2023-05-05T04:01:13.338Z,1.60
2023-05-05T04:02:13.412Z,1.90
2023-05-05T04:03:13.500Z,2.30
2023-05-05T04:04:13.365Z,1.30
2023-05-05T04:05:13.280Z,1.70
2023-05-05T04:06:13.295Z,1.60
2023-05-05T04:07:13.257Z,1.60
2023-05-05T04:08:13.279Z,1.80
2023-05-05T04:09:13.289Z,2.00
2023-05-05T04:10:13.240Z,1.30
2023-05-05T04:11:13.211Z,1.70
2023-05-05T04:12:13.244Z,1.90
2023-05-05T04:13:13.295Z,1.60
2023-05-05T04:14:13.267Z,1.90
2023-05-05T04:15:13.176Z,1.70
2023-05-05T04:16:13.200Z,1.50
2023-05-05T04:17:13.185Z,1.60
2023-05-05T04:18:13.146Z,1.70
2023-05-05T04:19:13.164Z,1.90
2023-05-05T04:20:13.263Z,1.10
2023-05-05T04:21:13.151Z,2.00
2023-05-05T04:22:13.148Z,2.10
2023-05-05T04:23:13.095Z,1.70
2023-05-05T04:24:13.094Z,1.40
2023-05-05T04:25:13.108Z,2.60
2023-05-05T04:26:13.069Z,1.80
2023-05-05T04:27:13.083Z,1.70
2023-05-05T04:28:13.120Z,2.50
2023-05-05T04:29:13.039Z,2.50
2023-05-05T04:30:13.072Z,2.50
2023-05-05T04:31:13.064Z,1.90
2023-05-05T04:32:13.045Z,1.60
2023-05-05T04:33:13.067Z,2.40
2023-05-05T04:34:12.983Z,2.00
2023-05-05T04:35:12.972Z,1.50
2023-05-05T04:36:13.055Z,2.30
2023-05-05T04:37:12.954Z,1.90
2023-05-05T04:38:12.947Z,2.40
2023-05-05T04:39:12.976Z,1.80
2023-05-05T04:40:12.956Z,2.20
2023-05-05T04:41:12.916Z,2.00
2023-05-05T04:42:12.922Z,2.30
2023-05-05T04:43:12.909Z,2.80
2023-05-05T04:44:13.024Z,2.70
2023-05-05T04:45:12.879Z,2.10
2023-05-05T04:46:12.884Z,2.20
2023-05-05T04:47:14.584Z,2.10
2023-05-05T04:48:12.856Z,2.10
2023-05-05T04:49:13.469Z,2.50
2023-05-05T04:50:12.870Z,1.90
2023-05-05T04:51:12.839Z,2.60
2023-05-05T04:52:12.821Z,3.10
2023-05-05T04:53:12.782Z,2.50
2023-05-05T04:54:12.805Z,3.10
2023-05-05T04:55:12.757Z,2.40
2023-05-05T04:56:12.829Z,2.10
2023-05-05T04:57:12.740Z,2.00
2023-05-05T04:58:12.750Z,1.50
2023-05-05T04:59:12.765Z,2.50
2023-05-05T05:00:12.718Z,2.30
2023-05-05T05:01:12.755Z,1.80
2023-05-05T05:02:12.792Z,2.90
2023-05-05T05:03:12.728Z,2.80
2023-05-05T05:04:12.680Z,2.00
2023-05-05T05:05:12.679Z,2.90
2023-05-05T05:06:12.662Z,2.10
2023-05-05T05:07:12.644Z,1.90
2023-05-05T05:08:12.692Z,3.00
2023-05-05T05:09:12.619Z,2.30
2023-05-05T05:10:12.627Z,2.30
2023-05-05T05:11:12.603Z,2.10
2023-05-05T05:12:12.625Z,2.20
2023-05-05T05:13:13.083Z,2.70
2023-05-05T05:14:12.587Z,2.40
2023-05-05T05:15:12.584Z,2.00
2023-05-05T05:16:12.605Z,2.00
2023-05-05T05:17:12.534Z,2.00
2023-05-05T05:18:12.566Z,1.80
2023-05-05T05:19:12.555Z,2.20
2023-05-05T05:20:12.502Z,2.60
2023-05-05T05:21:12.495Z,2.30
2023-05-05T05:22:12.488Z,2.70
2023-05-05T05:23:12.507Z,2.80
2023-05-05T05:24:12.476Z,1.90
2023-05-05T05:25:12.478Z,2.00
2023-05-05T05:26:12.470Z,2.30
2023-05-05T05:27:12.460Z,2.70
2023-05-05T05:28:12.416Z,2.80
2023-05-05T05:29:12.427Z,2.20
2023-05-05T05:30:12.407Z,2.80
2023-05-05T05:31:12.406Z,2.90
2023-05-05T05:32:12.448Z,2.70
2023-05-05T05:33:12.400Z,2.70
2023-05-05T05:34:12.903Z,3.00
2023-05-05T05:35:12.409Z,2.30
2023-05-05T05:36:12.336Z,2.30
2023-05-05T05:37:12.335Z,2.90
2023-05-05T05:38:12.363Z,1.80
2023-05-05T05:39:12.328Z,2.70
2023-05-05T05:40:12.287Z,2.60
2023-05-05T05:41:12.317Z,2.50
2023-05-05T05:42:12.269Z,2.40
2023-05-05T05:43:12.274Z,3.30
2023-05-05T05:44:12.481Z,4.10
2023-05-05T05:45:12.236Z,3.40
2023-05-05T05:46:12.247Z,2.10
2023-05-05T05:47:12.228Z,2.70
2023-05-05T05:48:12.219Z,2.90
2023-05-05T05:49:12.220Z,3.30
2023-05-05T05:50:12.194Z,1.90
2023-05-05T05:51:12.221Z,2.80
2023-05-05T05:52:12.154Z,2.50
2023-05-05T05:53:12.182Z,2.20
2023-05-05T05:54:12.123Z,3.10
2023-05-05T05:55:12.187Z,2.80
2023-05-05T05:56:12.109Z,2.30
2023-05-05T05:57:12.113Z,2.90
2023-05-05T05:58:12.104Z,2.60
2023-05-05T05:59:12.116Z,2.80
2023-05-05T06:00:12.083Z,3.10
2023-05-05T06:01:12.085Z,2.60
2023-05-05T06:02:12.075Z,3.20
2023-05-05T06:03:12.167Z,2.30
2023-05-05T06:04:12.072Z,2.90
2023-05-05T06:05:12.060Z,2.50
2023-05-05T06:06:12.006Z,2.70
2023-05-05T06:07:12.007Z,2.30
2023-05-05T06:08:12.001Z,3.90
2023-05-05T06:09:11.988Z,2.90
2023-05-05T06:10:26.543Z,2.90
2023-05-05T06:11:11.968Z,3.70
2023-05-05T06:12:11.979Z,2.90
2023-05-05T06:13:12.066Z,3.40
2023-05-05T06:14:11.918Z,3.10
2023-05-05T06:15:11.978Z,2.50
2023-05-05T06:16:11.914Z,3.00
2023-05-05T06:17:11.898Z,2.80
2023-05-05T06:18:11.950Z,3.20
2023-05-05T06:19:11.968Z,2.90
2023-05-05T06:20:11.851Z,2.80
2023-05-05T06:21:11.905Z,3.00
2023-05-05T06:22:11.860Z,3.10
2023-05-05T06:23:11.841Z,2.10
2023-05-05T06:24:11.819Z,3.30
2023-05-05T06:25:11.813Z,2.90
2023-05-05T06:26:11.804Z,3.00
2023-05-05T06:27:11.888Z,2.40
2023-05-05T06:28:11.769Z,2.70
2023-05-05T06:29:12.474Z,3.60
2023-05-05T06:30:11.761Z,3.20
2023-05-05T06:31:11.785Z,3.10
2023-05-05T06:32:11.732Z,3.10
2023-05-05T06:33:11.742Z,2.60
2023-05-05T06:34:11.712Z,2.70
2023-05-05T06:35:11.715Z,3.40
2023-05-05T06:36:11.717Z,2.20
2023-05-05T06:37:11.840Z,3.10
2023-05-05T06:38:11.680Z,2.10
2023-05-05T06:39:11.776Z,2.30
2023-05-05T06:40:11.656Z,3.10
2023-05-05T06:41:11.654Z,3.30
2023-05-05T06:42:11.923Z,3.10
2023-05-05T06:43:11.651Z,3.60
2023-05-05T06:44:11.613Z,2.50
2023-05-05T06:45:11.643Z,2.50
2023-05-05T06:46:11.637Z,1.60
2023-05-05T06:47:11.593Z,2.00
2023-05-05T06:48:11.605Z,1.70
2023-05-05T06:49:11.561Z,2.30
2023-05-05T06:50:11.675Z,1.80
2023-05-05T06:51:11.550Z,2.10
2023-05-05T06:52:11.521Z,5.10
2023-05-05T06:53:11.557Z,2.30
2023-05-05T06:54:11.523Z,2.20
2023-05-05T06:55:11.518Z,1.90
2023-05-05T06:56:11.487Z,2.50
2023-05-05T06:57:11.471Z,1.90
2023-05-05T06:58:11.468Z,2.60
2023-05-05T06:59:11.479Z,1.90
2023-05-05T07:00:11.501Z,1.60
2023-05-05T07:01:11.524Z,1.90
2023-05-05T07:02:11.417Z,1.50
2023-05-05T07:03:11.471Z,1.90
2023-05-05T07:04:11.493Z,2.00
2023-05-05T07:05:11.413Z,2.00
2023-05-05T07:06:11.431Z,2.30
2023-05-05T07:07:11.385Z,1.80
2023-05-05T07:08:11.403Z,1.80
2023-05-05T07:09:11.392Z,2.10
2023-05-05T07:10:11.405Z,2.10
2023-05-05T07:11:11.333Z,1.50
2023-05-05T07:12:11.331Z,1.70
2023-05-05T07:13:11.378Z,1.80
2023-05-05T07:14:11.389Z,1.80
2023-05-05T07:15:23.410Z,2.00
2023-05-05T07:16:11.297Z,1.60
2023-05-05T07:17:11.319Z,1.40
2023-05-05T07:18:11.363Z,1.50
2023-05-05T07:19:11.238Z,1.80
2023-05-05T07:20:11.254Z,2.00
2023-05-05T07:21:11.215Z,2.20
2023-05-05T07:22:11.227Z,1.70
2023-05-05T07:23:11.209Z,1.40
2023-05-05T07:24:11.207Z,1.00
2023-05-05T07:25:11.200Z,1.60
2023-05-05T07:26:11.178Z,2.00
2023-05-05T07:27:11.206Z,1.70
2023-05-05T07:28:11.197Z,1.20
2023-05-05T07:29:11.158Z,1.60
2023-05-05T07:30:14.711Z,1.90
2023-05-05T07:31:11.156Z,1.70
2023-05-05T07:32:11.136Z,1.20
2023-05-05T07:33:11.138Z,1.90
2023-05-05T07:34:11.090Z,1.60
2023-05-05T07:35:11.092Z,2.20
2023-05-05T07:36:11.056Z,1.30
2023-05-05T07:37:11.110Z,2.30
2023-05-05T07:38:11.100Z,2.20
2023-05-05T07:39:11.119Z,1.50
2023-05-05T07:40:11.376Z,1.90
2023-05-05T07:41:11.040Z,2.00
2023-05-05T07:42:11.033Z,2.40
2023-05-05T07:43:11.023Z,3.00
2023-05-05T07:44:10.977Z,2.10
2023-05-05T07:45:10.986Z,1.20
2023-05-05T07:46:11.088Z,1.40
2023-05-05T07:47:10.953Z,1.20
2023-05-05T07:48:11.080Z,1.30
2023-05-05T07:49:10.924Z,1.70
2023-05-05T07:50:11.262Z,1.30
2023-05-05T07:51:10.922Z,1.60
2023-05-05T07:52:10.919Z,1.40
2023-05-05T07:53:14.797Z,1.70
2023-05-05T07:54:10.872Z,1.30
2023-05-05T07:55:10.893Z,1.40
2023-05-05T07:56:10.858Z,1.70
2023-05-05T07:57:10.872Z,1.80
2023-05-05T07:58:10.948Z,1.60
2023-05-05T07:59:10.850Z,1.30
2023-05-05T08:00:11.119Z,1.20
2023-05-05T08:01:10.872Z,1.60
2023-05-05T08:02:10.862Z,1.20
2023-05-05T08:03:11.906Z,1.60
2023-05-05T08:04:10.888Z,1.50
2023-05-05T08:05:10.987Z,1.30
2023-05-05T08:06:10.769Z,1.50
2023-05-05T08:07:10.750Z,1.70
2023-05-05T08:08:10.791Z,2.40
2023-05-05T08:09:10.738Z,2.10
2023-05-05T08:10:10.715Z,1.90
2023-05-05T08:11:10.707Z,2.10
2023-05-05T08:12:10.749Z,2.00
2023-05-05T08:13:10.793Z,1.70
2023-05-05T08:14:10.688Z,1.90
2023-05-05T08:15:10.993Z,1.50
2023-05-05T08:16:10.668Z,1.60
2023-05-05T08:17:11.148Z,1.90
2023-05-05T08:18:10.688Z,1.70
2023-05-05T08:19:21.220Z,2.10
2023-05-05T08:20:10.667Z,2.10
2023-05-05T08:21:10.597Z,2.00
2023-05-05T08:22:10.605Z,2.00
2023-05-05T08:23:10.577Z,2.20
2023-05-05T08:24:10.579Z,2.10
2023-05-05T08:25:10.622Z,2.10
2023-05-05T08:26:10.542Z,2.00
2023-05-05T08:27:10.570Z,2.30
2023-05-05T08:28:10.514Z,2.10
2023-05-05T08:29:10.523Z,1.90
2023-05-05T08:30:10.541Z,2.50
2023-05-05T08:31:10.538Z,1.90
2023-05-05T08:32:10.525Z,2.00
2023-05-05T08:33:10.499Z,1.90
2023-05-05T08:34:10.458Z,2.40
2023-05-05T08:35:10.901Z,1.40
2023-05-05T08:36:10.426Z,2.20
2023-05-05T08:37:10.436Z,1.80
2023-05-05T08:38:10.432Z,1.40
2023-05-05T08:39:10.398Z,1.90
2023-05-05T08:40:11.181Z,1.80
2023-05-05T08:41:10.424Z,1.90
2023-05-05T08:42:10.377Z,1.90
2023-05-05T08:43:10.369Z,1.60
2023-05-05T08:44:10.358Z,1.90
2023-05-05T08:45:10.938Z,1.70
2023-05-05T08:46:10.356Z,1.90
2023-05-05T08:47:10.411Z,1.60
2023-05-05T08:48:10.331Z,2.00
2023-05-05T08:49:10.332Z,1.70
2023-05-05T08:50:10.525Z,1.60
2023-05-05T08:51:10.314Z,2.00
2023-05-05T08:52:10.295Z,1.40
2023-05-05T08:53:10.277Z,2.00
2023-05-05T08:54:10.233Z,1.80
2023-05-05T08:55:10.341Z,2.30
2023-05-05T08:56:10.224Z,1.80
2023-05-05T08:57:10.222Z,1.90
2023-05-05T08:58:10.213Z,2.50
2023-05-05T08:59:10.225Z,1.40
2023-05-05T09:00:10.181Z,1.50
2023-05-05T09:01:10.286Z,2.10
2023-05-05T09:02:10.218Z,2.10
2023-05-05T09:03:10.253Z,1.50
2023-05-05T09:04:10.137Z,2.50
2023-05-05T09:05:10.374Z,2.30
2023-05-05T09:06:10.124Z,2.30
2023-05-05T09:07:10.129Z,1.60
2023-05-05T09:08:10.087Z,2.00
2023-05-05T09:09:10.087Z,2.00
2023-05-05T09:10:10.093Z,2.20
2023-05-05T09:11:10.094Z,3.10
2023-05-05T09:12:10.061Z,2.10
2023-05-05T09:13:10.074Z,2.50
2023-05-05T09:14:10.031Z,2.90
2023-05-05T09:15:10.157Z,1.90
2023-05-05T09:16:10.025Z,2.10
2023-05-05T09:17:10.196Z,2.30
2023-05-05T09:18:09.999Z,1.90
2023-05-05T09:19:09.988Z,2.50
2023-05-05T09:20:09.976Z,1.20
2023-05-05T09:21:09.968Z,1.50
2023-05-05T09:22:09.981Z,1.80
2023-05-05T09:23:09.959Z,2.20
2023-05-05T09:24:10.013Z,2.10
2023-05-05T09:25:10.116Z,2.20
2023-05-05T09:26:09.913Z,2.00
2023-05-05T09:27:09.947Z,1.90
2023-05-05T09:28:09.887Z,2.10
2023-05-05T09:29:09.927Z,1.90
2023-05-05T09:30:09.895Z,1.50
2023-05-05T09:31:09.906Z,1.70
2023-05-05T09:32:09.873Z,2.40
2023-05-05T09:33:09.919Z,1.80
2023-05-05T09:34:09.839Z,2.60
2023-05-05T09:35:09.994Z,1.90
2023-05-05T09:36:09.809Z,1.60
2023-05-05T09:37:09.808Z,2.60
2023-05-05T09:38:09.805Z,1.90
2023-05-05T09:39:09.781Z,1.60
2023-05-05T09:40:09.788Z,2.20
2023-05-05T09:41:09.840Z,1.80
2023-05-05T09:42:09.749Z,1.90
2023-05-05T09:43:09.750Z,1.90
2023-05-05T09:44:09.735Z,2.00
2023-05-05T09:45:09.934Z,2.10
2023-05-05T09:46:09.734Z,1.30
2023-05-05T09:47:21.937Z,1.90
2023-05-05T09:48:09.747Z,1.90
2023-05-05T09:49:09.685Z,2.40
2023-05-05T09:50:09.880Z,1.70
2023-05-05T09:51:09.661Z,1.40
2023-05-05T09:52:09.653Z,2.50
2023-05-05T09:53:09.648Z,2.20
2023-05-05T09:54:09.656Z,2.60
2023-05-05T09:55:09.620Z,1.40
2023-05-05T09:56:09.615Z,1.50
2023-05-05T09:57:09.585Z,2.00
2023-05-05T09:58:09.670Z,1.90
2023-05-05T09:59:09.584Z,1.90
2023-05-05T10:00:09.797Z,1.70
2023-05-05T10:01:09.568Z,1.80
2023-05-05T10:02:09.550Z,1.90
2023-05-05T10:03:09.590Z,2.10
2023-05-05T10:04:09.529Z,1.80
2023-05-05T10:05:09.556Z,2.10
2023-05-05T10:06:09.544Z,2.10
2023-05-05T10:07:09.492Z,1.90
2023-05-05T10:08:09.469Z,1.70
2023-05-05T10:09:09.484Z,1.80
2023-05-05T10:10:09.784Z,1.60
2023-05-05T10:11:09.455Z,1.50
2023-05-05T10:12:09.491Z,2.10
2023-05-05T10:13:09.480Z,1.70
2023-05-05T10:14:09.410Z,1.40
2023-05-05T10:15:09.446Z,1.40
2023-05-05T10:16:09.458Z,2.10
2023-05-05T10:17:09.373Z,2.80
2023-05-05T10:18:09.408Z,1.90
2023-05-05T10:19:09.354Z,1.70
2023-05-05T10:20:09.449Z,1.60
2023-05-05T10:21:09.358Z,1.50
2023-05-05T10:22:09.349Z,2.30
2023-05-05T10:23:09.319Z,2.00
2023-05-05T10:24:09.312Z,1.80
2023-05-05T10:25:09.319Z,1.60
2023-05-05T10:26:09.331Z,1.50
2023-05-05T10:27:10.574Z,2.20
2023-05-05T10:28:09.277Z,1.60
2023-05-05T10:29:09.247Z,1.20
2023-05-05T10:30:09.479Z,1.70
2023-05-05T10:31:20.356Z,2.10
2023-05-05T10:32:30.247Z,1.40
2023-05-05T10:34:09.242Z,2.60
2023-05-05T10:35:09.213Z,1.60
2023-05-05T10:36:09.206Z,1.80
2023-05-05T10:37:09.811Z,1.40
2023-05-05T10:38:09.198Z,2.00
2023-05-05T10:39:09.202Z,1.60
2023-05-05T10:40:09.350Z,1.90
2023-05-05T10:41:09.143Z,1.50
2023-05-05T10:42:09.156Z,1.60
2023-05-05T10:43:09.208Z,1.40
2023-05-05T10:44:09.142Z,2.00
2023-05-05T10:45:09.123Z,1.60
2023-05-05T10:46:09.126Z,1.90
2023-05-05T10:47:09.094Z,1.50
2023-05-05T10:48:09.263Z,1.70
2023-05-05T10:49:11.662Z,2.10
2023-05-05T10:50:09.299Z,1.40
2023-05-05T10:51:09.071Z,1.30
2023-05-05T10:52:09.078Z,1.30
2023-05-05T10:53:09.017Z,1.50
2023-05-05T10:54:09.047Z,1.40
2023-05-05T10:55:08.987Z,1.30
2023-05-05T10:56:08.986Z,1.50
2023-05-05T10:57:08.990Z,2.00
2023-05-05T10:58:08.971Z,1.20
2023-05-05T10:59:08.940Z,1.00
2023-05-05T11:00:09.236Z,1.10
2023-05-05T11:01:08.955Z,1.10
2023-05-05T11:02:08.951Z,1.00
2023-05-05T11:03:08.944Z,0.70
2023-05-05T11:04:09.014Z,0.70
2023-05-05T11:05:08.897Z,1.20
2023-05-05T11:06:08.895Z,1.00
2023-05-05T11:07:11.778Z,1.10
2023-05-05T11:08:08.892Z,1.20
2023-05-05T11:09:08.861Z,1.10
2023-05-05T11:10:09.092Z,0.80
2023-05-05T11:11:08.846Z,0.50
2023-05-05T11:12:08.827Z,0.80
2023-05-05T11:13:08.926Z,0.80
2023-05-05T11:14:08.829Z,0.90
2023-05-05T11:15:08.797Z,0.80
2023-05-05T11:16:08.835Z,0.60
2023-05-05T11:17:08.774Z,1.40
2023-05-05T11:18:08.987Z,1.00
2023-05-05T11:19:08.770Z,0.70
2023-05-05T11:20:09.040Z,1.10
2023-05-05T11:21:08.737Z,0.60
2023-05-05T11:22:08.751Z,0.80
2023-05-05T11:23:08.727Z,0.60
2023-05-05T11:24:08.726Z,0.70
2023-05-05T11:25:08.692Z,0.80
2023-05-05T11:26:08.699Z,0.60
2023-05-05T11:27:08.668Z,0.60
2023-05-05T11:28:08.841Z,0.30
2023-05-05T11:29:08.678Z,0.80
2023-05-05T11:30:08.913Z,0.90
2023-05-05T11:31:08.659Z,0.60
2023-05-05T11:32:08.628Z,0.80
2023-05-05T11:33:08.669Z,1.10
2023-05-05T11:34:08.617Z,1.20
2023-05-05T11:35:08.615Z,0.60
2023-05-05T11:36:08.600Z,0.80
2023-05-05T11:37:08.797Z,0.90
2023-05-05T11:38:08.580Z,0.70
2023-05-05T11:39:08.570Z,0.80
2023-05-05T11:40:08.874Z,1.90
2023-05-05T11:41:08.548Z,1.10
2023-05-05T11:42:10.829Z,0.80
2023-05-05T11:43:08.492Z,0.60
2023-05-05T11:44:08.551Z,0.60
2023-05-05T11:45:08.492Z,0.50
2023-05-05T11:46:08.493Z,0.70
2023-05-05T11:47:08.456Z,0.90
2023-05-05T11:48:08.588Z,0.70
2023-05-05T11:49:08.427Z,0.60
2023-05-05T11:50:08.720Z,0.50
2023-05-05T11:51:08.432Z,0.60
2023-05-05T11:52:08.434Z,0.80
2023-05-05T11:53:08.390Z,0.60
2023-05-05T11:54:08.381Z,0.90
2023-05-05T11:55:08.359Z,0.80
2023-05-05T11:56:08.363Z,0.90
2023-05-05T11:57:08.668Z,0.70
2023-05-05T11:58:08.414Z,0.70
2023-05-05T11:59:08.349Z,0.60
2023-05-05T12:00:08.700Z,0.90
2023-05-05T12:01:08.377Z,0.70
2023-05-05T12:02:08.317Z,0.60
2023-05-05T12:03:08.378Z,0.50
2023-05-05T12:04:08.580Z,0.50
2023-05-05T12:05:08.346Z,0.40
2023-05-05T12:06:08.264Z,0.50
2023-05-05T12:07:08.315Z,0.70
2023-05-05T12:08:08.282Z,0.40
2023-05-05T12:09:08.217Z,0.60
2023-05-05T12:10:08.511Z,0.70
2023-05-05T12:11:08.206Z,0.60
2023-05-05T12:12:08.220Z,0.70
2023-05-05T12:13:08.334Z,0.40
2023-05-05T12:14:08.204Z,0.80
2023-05-05T12:15:08.173Z,0.40
2023-05-05T12:16:08.181Z,0.90
2023-05-05T12:17:08.147Z,1.00
2023-05-05T12:18:08.200Z,0.80
2023-05-05T12:19:08.162Z,0.60
2023-05-05T12:20:08.339Z,0.60
2023-05-05T12:21:08.114Z,0.70
2023-05-05T12:22:08.112Z,0.40
2023-05-05T12:23:08.089Z,0.60
2023-05-05T12:24:08.074Z,0.70
2023-05-05T12:25:08.211Z,0.60
2023-05-05T12:26:08.087Z,1.30
2023-05-05T12:27:08.034Z,0.60
2023-05-05T12:28:08.063Z,0.60
2023-05-05T12:29:08.046Z,0.70
2023-05-05T12:30:08.392Z,0.80
2023-05-05T12:31:08.053Z,0.70
2023-05-05T12:32:08.050Z,0.50
2023-05-05T12:33:08.004Z,0.50
2023-05-05T12:34:07.999Z,1.50
2023-05-05T12:35:07.972Z,0.70
2023-05-05T12:36:07.956Z,0.50
2023-05-05T12:37:07.938Z,0.60
2023-05-05T12:38:07.953Z,0.30
2023-05-05T12:39:07.934Z,0.50
2023-05-05T12:40:08.379Z,1.00
2023-05-05T12:41:07.898Z,0.60
2023-05-05T12:42:07.891Z,0.30
2023-05-05T12:43:07.885Z,0.60
2023-05-05T12:44:07.889Z,0.40
2023-05-05T12:45:07.913Z,0.80
2023-05-05T12:46:07.948Z,0.70
2023-05-05T12:47:07.874Z,0.50
2023-05-05T12:48:07.875Z,0.70
2023-05-05T12:49:07.830Z,0.60
2023-05-05T12:50:08.039Z,0.60
2023-05-05T12:51:07.788Z,0.50
2023-05-05T12:52:07.837Z,0.50
2023-05-05T12:53:07.775Z,0.50
2023-05-05T12:54:07.764Z,0.30
2023-05-05T12:55:08.065Z,0.30
2023-05-05T12:56:07.753Z,0.50
2023-05-05T12:57:07.735Z,0.80
2023-05-05T12:58:07.744Z,0.70
2023-05-05T12:59:07.819Z,0.60
2023-05-05T13:00:08.000Z,0.70
2023-05-05T13:01:07.724Z,0.50
2023-05-05T13:02:07.729Z,0.60
2023-05-05T13:03:07.821Z,0.40
2023-05-05T13:04:07.666Z,0.40
2023-05-05T13:05:07.800Z,0.80
2023-05-05T13:06:07.679Z,0.50
2023-05-05T13:07:07.632Z,0.70
2023-05-05T13:08:07.636Z,1.00
2023-05-05T13:09:07.671Z,0.70
2023-05-05T13:10:07.700Z,0.30
2023-05-05T13:11:07.590Z,1.10
2023-05-05T13:12:07.610Z,0.60
2023-05-05T13:13:07.621Z,0.50
2023-05-05T13:14:07.563Z,0.70
2023-05-05T13:15:07.797Z,0.40
2023-05-05T13:16:07.626Z,0.50
2023-05-05T13:17:07.553Z,0.30
2023-05-05T13:18:07.539Z,0.80
2023-05-05T13:19:07.510Z,0.40